createdAt,value
2023-05-04T00:01:01.206Z,5.95
2023-05-04T00:03:28.850Z,5.83
2023-05-04T00:05:56.421Z,6.30
2023-05-04T00:08:23.762Z,5.63
2023-05-04T00:10:51.045Z,6.28
2023-05-04T00:13:18.354Z,5.95
2023-05-04T00:15:45.960Z,6.40
2023-05-04T00:18:13.375Z,6.38
2023-05-04T00:20:41.046Z,5.50
2023-05-04T00:23:08.419Z,6.40
2023-05-04T00:25:35.779Z,5.70
2023-05-04T00:28:03.038Z,5.70
2023-05-04T00:30:30.328Z,6.25
2023-05-04T00:32:57.667Z,6.47
2023-05-04T00:35:25.385Z,5.28
2023-05-04T00:37:52.764Z,5.85
2023-05-04T00:40:20.176Z,6.10
2023-05-04T00:42:47.641Z,6.25
2023-05-04T00:45:15.694Z,6.10
2023-05-04T00:47:43.807Z,6.60
2023-05-04T00:50:11.742Z,5.75
2023-05-04T00:52:40.704Z,6.00
2023-05-04T00:55:08.602Z,5.80
2023-05-04T00:57:36.074Z,5.93
2023-05-04T01:00:03.739Z,6.72
2023-05-04T01:02:31.395Z,6.35
2023-05-04T01:04:58.731Z,6.40
2023-05-04T01:07:32.218Z,6.25
2023-05-04T01:10:03.405Z,6.35
2023-05-04T01:12:30.853Z,6.75
2023-05-04T01:14:59.383Z,6.85
2023-05-04T01:17:26.815Z,5.90
2023-05-04T01:19:54.421Z,5.65
2023-05-04T01:22:22.158Z,6.20
2023-05-04T01:24:49.908Z,6.07
2023-05-04T01:27:28.043Z,5.97
2023-05-04T01:29:58.173Z,6.23
2023-05-04T01:32:27.945Z,6.13
2023-05-04T01:34:55.464Z,7.10
2023-05-04T01:37:22.856Z,5.60
2023-05-04T01:39:51.854Z,6.28
2023-05-04T01:42:19.202Z,5.50
2023-05-04T01:44:46.545Z,5.80
2023-05-04T01:47:13.852Z,5.82
2023-05-04T01:49:41.281Z,5.85
2023-05-04T01:52:09.842Z,6.55
2023-05-04T01:54:37.162Z,5.60
2023-05-04T01:57:04.734Z,6.20
2023-05-04T01:59:32.034Z,5.75
2023-05-04T02:01:59.443Z,6.25
2023-05-04T02:04:27.584Z,5.90
2023-05-04T02:06:54.851Z,5.30
2023-05-04T02:09:22.211Z,5.55
2023-05-04T02:11:49.724Z,5.00
2023-05-04T02:14:17.121Z,5.90
2023-05-04T02:16:44.472Z,5.65
2023-05-04T02:19:12.714Z,4.90
2023-05-04T02:21:41.964Z,5.70
2023-05-04T02:24:09.240Z,6.35
2023-05-04T02:26:36.570Z,5.70
2023-05-04T02:29:05.029Z,5.70
2023-05-04T02:31:35.568Z,5.40
2023-05-04T02:34:03.073Z,6.10
2023-05-04T02:36:30.647Z,6.20
2023-05-04T02:39:00.465Z,5.50
2023-05-04T02:41:27.950Z,5.50
2023-05-04T02:43:55.298Z,5.00
2023-05-04T02:46:24.185Z,5.43
2023-05-04T02:48:51.582Z,5.60
2023-05-04T02:51:22.010Z,5.93
2023-05-04T02:53:49.267Z,5.78
2023-05-04T02:56:16.691Z,5.17
2023-05-04T02:58:43.948Z,5.93
2023-05-04T03:01:11.338Z,4.95
2023-05-04T03:03:38.639Z,5.65
2023-05-04T03:06:06.091Z,5.55
2023-05-04T03:08:33.426Z,5.93
2023-05-04T03:11:00.717Z,5.75
2023-05-04T03:13:28.071Z,5.97
2023-05-04T03:15:55.407Z,5.43
2023-05-04T03:18:22.749Z,5.00
2023-05-04T03:20:50.770Z,6.77
2023-05-04T03:23:20.666Z,5.78
2023-05-04T03:25:48.240Z,6.10
2023-05-04T03:28:15.825Z,6.97
2023-05-04T03:30:43.199Z,6.00
2023-05-04T03:33:11.553Z,5.50
2023-05-04T03:35:39.010Z,5.75
2023-05-04T03:38:07.674Z,6.38
2023-05-04T03:40:35.208Z,5.65
2023-05-04T03:43:02.469Z,5.68
2023-05-04T03:45:29.998Z,5.50
2023-05-04T03:47:58.491Z,5.50
2023-05-04T03:50:26.914Z,5.60
2023-05-04T03:52:54.180Z,5.53
2023-05-04T03:55:24.157Z,5.70
2023-05-04T03:57:52.236Z,5.73
2023-05-04T04:00:19.881Z,5.75
2023-05-04T04:02:55.583Z,5.50
2023-05-04T04:05:23.032Z,5.72
2023-05-04T04:07:52.722Z,5.38
2023-05-04T04:10:20.738Z,5.87
2023-05-04T04:12:48.182Z,6.20
2023-05-04T04:15:15.558Z,5.00
2023-05-04T04:17:42.990Z,6.25
2023-05-04T04:20:10.656Z,5.63
2023-05-04T04:22:37.950Z,5.30
2023-05-04T04:25:05.432Z,5.82
2023-05-04T04:27:32.759Z,6.05
2023-05-04T04:30:00.059Z,5.07
2023-05-04T04:32:27.471Z,5.90
2023-05-04T04:34:54.772Z,6.00
2023-05-04T04:37:22.477Z,6.03
2023-05-04T04:39:49.908Z,6.22
2023-05-04T04:42:17.411Z,6.30
2023-05-04T04:44:45.744Z,5.97
2023-05-04T04:47:13.184Z,5.73
2023-05-04T04:49:40.488Z,6.00
2023-05-04T04:52:07.728Z,5.53
2023-05-04T04:54:35.007Z,6.43
2023-05-04T04:57:02.510Z,6.85
2023-05-04T04:59:30.113Z,5.90
2023-05-04T05:01:57.806Z,6.32
2023-05-04T05:04:25.239Z,7.18
2023-05-04T05:06:54.204Z,6.25
2023-05-04T05:09:21.612Z,6.07
2023-05-04T05:11:48.921Z,6.87
2023-05-04T05:14:16.301Z,6.80
2023-05-04T05:16:43.627Z,6.70
2023-05-04T05:19:11.027Z,5.70
2023-05-04T05:21:38.445Z,5.70
2023-05-04T05:24:06.384Z,5.70
2023-05-04T05:26:34.339Z,6.53
2023-05-04T05:29:01.766Z,6.40
2023-05-04T05:31:29.129Z,6.25
2023-05-04T05:33:56.522Z,5.90
2023-05-04T05:36:23.893Z,6.20
2023-05-04T05:38:52.439Z,6.13
2023-05-04T05:41:19.850Z,6.55
2023-05-04T05:43:47.230Z,6.78
2023-05-04T05:46:15.815Z,6.53
2023-05-04T05:48:43.217Z,6.63
2023-05-04T05:51:10.554Z,6.15
2023-05-04T05:53:38.758Z,6.07
2023-05-04T05:56:06.197Z,6.70
2023-05-04T05:58:33.448Z,6.20
2023-05-04T06:01:00.792Z,6.40
2023-05-04T06:03:28.299Z,7.38
2023-05-04T06:05:55.759Z,5.97
2023-05-04T06:08:23.116Z,6.60
2023-05-04T06:10:51.521Z,7.00
2023-05-04T06:13:19.165Z,6.73
2023-05-04T06:15:55.694Z,6.40
2023-05-04T06:18:23.097Z,6.20
2023-05-04T06:20:50.538Z,6.78
2023-05-04T06:23:17.786Z,6.00
2023-05-04T06:25:45.096Z,7.07
2023-05-04T06:28:12.411Z,6.78
2023-05-04T06:30:39.741Z,6.63
2023-05-04T06:33:07.282Z,6.30
2023-05-04T06:35:34.679Z,6.45
2023-05-04T06:38:01.984Z,6.60
2023-05-04T06:40:29.571Z,6.97
2023-05-04T06:42:57.051Z,6.45
2023-05-04T06:45:24.445Z,6.15
2023-05-04T06:47:52.838Z,5.63
2023-05-04T06:50:20.221Z,6.37
2023-05-04T06:52:47.609Z,6.70
2023-05-04T06:55:14.994Z,6.10
2023-05-04T06:57:42.362Z,6.03
2023-05-04T07:00:10.677Z,6.10
2023-05-04T07:02:38.083Z,5.50
2023-05-04T07:05:05.815Z,6.47
2023-05-04T07:07:33.204Z,6.28
2023-05-04T07:10:00.581Z,6.95
2023-05-04T07:12:27.923Z,7.22
2023-05-04T07:14:55.322Z,6.63
2023-05-04T07:17:25.260Z,6.93
2023-05-04T07:19:52.761Z,5.80
2023-05-04T07:22:21.124Z,6.63
2023-05-04T07:24:48.468Z,5.95
2023-05-04T07:27:15.985Z,6.87
2023-05-04T07:29:43.609Z,6.57
2023-05-04T07:32:11.235Z,5.47
2023-05-04T07:34:45.659Z,6.18
2023-05-04T07:37:14.315Z,5.80
2023-05-04T07:39:41.681Z,6.30
2023-05-04T07:42:09.324Z,6.18
2023-05-04T07:44:36.813Z,5.65
2023-05-04T07:47:04.129Z,5.30
2023-05-04T07:49:31.556Z,5.63
2023-05-04T07:51:58.885Z,5.87
2023-05-04T07:54:26.332Z,4.97
2023-05-04T07:56:53.708Z,5.85
2023-05-04T07:59:21.754Z,5.55
2023-05-04T08:01:49.215Z,6.25
2023-05-04T08:04:16.596Z,6.53
2023-05-04T08:06:44.005Z,5.82
2023-05-04T08:09:11.270Z,4.85
2023-05-04T08:11:40.116Z,5.50
2023-05-04T08:14:07.521Z,5.35
2023-05-04T08:16:35.152Z,5.43
2023-05-04T08:19:02.454Z,5.07
2023-05-04T08:21:30.576Z,5.40
2023-05-04T08:23:57.984Z,4.90
2023-05-04T08:26:25.230Z,5.30
2023-05-04T08:28:52.570Z,4.73
2023-05-04T08:31:20.047Z,5.78
2023-05-04T08:33:47.354Z,5.05
2023-05-04T08:36:14.720Z,4.93
2023-05-04T08:38:42.082Z,5.05
2023-05-04T08:41:09.503Z,5.50
2023-05-04T08:43:37.534Z,5.35
2023-05-04T08:46:05.327Z,4.60
2023-05-04T08:48:35.948Z,4.65
2023-05-04T08:51:04.434Z,5.45
2023-05-04T08:53:32.446Z,4.70
2023-05-04T08:56:04.304Z,4.80
2023-05-04T08:58:32.151Z,5.35
2023-05-04T09:01:01.788Z,4.70
2023-05-04T09:03:30.641Z,5.10
2023-05-04T09:05:58.982Z,4.83
2023-05-04T09:08:26.489Z,4.63
2023-05-04T09:10:53.798Z,4.60
2023-05-04T09:13:21.148Z,4.85
2023-05-04T09:15:58.306Z,5.22
2023-05-04T09:18:36.106Z,4.60
2023-05-04T09:21:03.509Z,4.82
2023-05-04T09:23:30.780Z,4.47
2023-05-04T09:25:58.180Z,5.15
2023-05-04T09:28:39.256Z,5.53
2023-05-04T09:31:07.534Z,5.27
2023-05-04T09:33:35.559Z,5.25
2023-05-04T09:36:21.184Z,4.38
2023-05-04T09:38:48.985Z,4.75
2023-05-04T09:41:16.573Z,4.70
2023-05-04T09:43:44.916Z,5.23
2023-05-04T09:46:19.096Z,4.80
2023-05-04T09:48:56.993Z,4.82
2023-05-04T09:51:26.512Z,3.95
2023-05-04T09:53:54.437Z,4.00
2023-05-04T09:56:30.676Z,4.20
2023-05-04T09:58:58.763Z,3.63
2023-05-04T10:01:32.570Z,4.70
2023-05-04T10:03:59.997Z,4.60
2023-05-04T10:06:30.294Z,4.57
2023-05-04T10:08:59.693Z,4.00
2023-05-04T10:11:27.294Z,4.20
2023-05-04T10:13:57.866Z,3.53
2023-05-04T10:16:37.434Z,4.35
2023-05-04T10:19:12.519Z,3.95
2023-05-04T10:21:39.814Z,3.73
2023-05-04T10:24:07.240Z,3.60
2023-05-04T10:26:55.093Z,3.58
2023-05-04T10:29:23.973Z,3.83
2023-05-04T10:31:51.487Z,3.15
2023-05-04T10:34:34.858Z,3.97
2023-05-04T10:37:04.224Z,4.45
2023-05-04T10:39:32.907Z,3.30
2023-05-04T10:42:02.127Z,3.70
2023-05-04T10:44:30.260Z,3.30
2023-05-04T10:46:59.734Z,3.77
2023-05-04T10:49:27.374Z,4.80
2023-05-04T10:52:10.136Z,4.13
2023-05-04T10:54:37.954Z,3.83
2023-05-04T10:57:06.359Z,3.90
2023-05-04T10:59:36.027Z,4.40
2023-05-04T11:02:05.091Z,4.22
2023-05-04T11:04:33.011Z,4.20
2023-05-04T11:07:01.305Z,4.53
2023-05-04T11:09:29.528Z,4.20
2023-05-04T11:11:57.358Z,4.57
2023-05-04T11:14:26.194Z,4.75
2023-05-04T11:16:54.464Z,4.45
2023-05-04T11:19:21.967Z,4.53
2023-05-04T11:21:49.300Z,5.28
2023-05-04T11:24:16.692Z,4.80
2023-05-04T11:26:48.299Z,4.22
2023-05-04T11:29:16.444Z,3.85
2023-05-04T11:31:54.186Z,4.40
2023-05-04T11:34:21.624Z,4.05
2023-05-04T11:36:49.974Z,5.10
2023-05-04T11:39:17.895Z,3.80
2023-05-04T11:41:45.350Z,3.80
2023-05-04T11:44:13.291Z,3.60
2023-05-04T11:46:40.791Z,3.95
2023-05-04T11:49:08.283Z,4.23
2023-05-04T11:51:35.864Z,3.72
2023-05-04T11:54:03.319Z,3.72
2023-05-04T11:56:40.866Z,3.80
2023-05-04T11:59:10.589Z,4.97
2023-05-04T12:01:38.114Z,4.17
2023-05-04T12:04:05.821Z,4.80
2023-05-04T12:06:33.980Z,4.80
2023-05-04T12:09:05.902Z,5.65
2023-05-04T12:11:33.694Z,4.90
2023-05-04T12:14:04.205Z,5.80
2023-05-04T12:16:31.801Z,5.35
2023-05-04T12:19:06.555Z,5.45
2023-05-04T12:21:34.520Z,4.70
2023-05-04T12:24:02.261Z,5.53
2023-05-04T12:26:29.936Z,5.40
2023-05-04T12:28:57.494Z,5.55
2023-05-04T12:31:25.467Z,6.03
2023-05-04T12:33:53.176Z,5.95
2023-05-04T12:36:20.535Z,5.85
2023-05-04T12:38:47.806Z,5.23
2023-05-04T12:41:15.197Z,5.65
2023-05-04T12:43:43.113Z,5.95
2023-05-04T12:46:10.664Z,5.65
2023-05-04T12:48:38.016Z,5.57
2023-05-04T12:51:05.651Z,5.47
2023-05-04T12:53:33.097Z,6.18
2023-05-04T12:56:01.525Z,5.88
2023-05-04T12:58:29.104Z,5.57
2023-05-04T13:00:58.012Z,5.93
2023-05-04T13:03:25.489Z,6.10
2023-05-04T13:05:53.046Z,6.00
2023-05-04T13:08:20.335Z,6.47
2023-05-04T13:10:48.117Z,6.18
2023-05-04T13:13:17.761Z,5.60
2023-05-04T13:15:45.557Z,6.70
2023-05-04T13:18:13.215Z,6.80
2023-05-04T13:20:41.027Z,6.85
2023-05-04T13:23:08.412Z,8.30
2023-05-04T13:25:35.716Z,7.15
2023-05-04T13:28:03.463Z,6.67
2023-05-04T13:30:30.930Z,8.07
2023-05-04T13:32:58.299Z,8.23
2023-05-04T13:35:25.713Z,7.45
2023-05-04T13:37:53.242Z,7.40
2023-05-04T13:40:20.868Z,7.27
2023-05-04T13:42:48.492Z,7.60
2023-05-04T13:45:15.876Z,7.75
2023-05-04T13:47:43.438Z,7.72
2023-05-04T13:50:10.821Z,8.15
2023-05-04T13:52:38.331Z,9.43
2023-05-04T13:55:06.195Z,8.55
2023-05-04T13:57:33.687Z,7.68
2023-05-04T14:00:07.582Z,7.95
2023-05-04T14:02:38.723Z,8.07
2023-05-04T14:05:07.575Z,7.53
2023-05-04T14:07:35.886Z,8.60
2023-05-04T14:10:03.686Z,7.65
2023-05-04T14:12:31.040Z,8.00
2023-05-04T14:14:59.084Z,9.18
2023-05-04T14:17:26.517Z,8.37
2023-05-04T14:19:53.823Z,7.80
2023-05-04T14:22:21.182Z,7.10
2023-05-04T14:24:50.278Z,8.48
2023-05-04T14:27:17.755Z,7.90
2023-05-04T14:29:47.628Z,7.10
2023-05-04T14:32:15.544Z,7.53
2023-05-04T14:34:42.941Z,7.75
2023-05-04T14:37:10.320Z,8.13
2023-05-04T14:39:39.409Z,7.18
2023-05-04T14:42:06.700Z,7.93
2023-05-04T14:44:34.299Z,7.03
2023-05-04T14:47:05.398Z,7.57
2023-05-04T14:49:37.235Z,7.43
2023-05-04T14:52:05.478Z,7.28
2023-05-04T14:54:33.093Z,7.30
2023-05-04T14:57:00.475Z,7.40
2023-05-04T14:59:27.810Z,7.50
2023-05-04T15:01:55.771Z,8.40
2023-05-04T15:04:23.185Z,8.38
2023-05-04T15:06:52.323Z,8.13
2023-05-04T15:09:19.730Z,7.38
2023-05-04T15:11:47.078Z,8.10
2023-05-04T15:14:14.415Z,7.75
2023-05-04T15:16:41.702Z,7.72
2023-05-04T15:19:09.044Z,8.27
2023-05-04T15:21:36.484Z,8.20
2023-05-04T15:24:03.876Z,8.13
2023-05-04T15:26:31.263Z,8.98
2023-05-04T15:28:59.023Z,7.47
2023-05-04T15:31:26.793Z,7.80
2023-05-04T15:33:54.399Z,7.05
2023-05-04T15:36:23.579Z,7.78
2023-05-04T15:38:50.909Z,7.50
2023-05-04T15:41:18.248Z,8.13
2023-05-04T15:43:45.604Z,7.80
2023-05-04T15:46:12.991Z,7.45
2023-05-04T15:48:40.460Z,6.95
2023-05-04T15:51:13.954Z,7.80
2023-05-04T15:53:41.362Z,8.32
2023-05-04T15:56:09.118Z,8.03
2023-05-04T15:58:36.553Z,8.93
2023-05-04T16:01:04.287Z,8.32
2023-05-04T16:03:33.398Z,8.05
2023-05-04T16:06:00.958Z,7.18
2023-05-04T16:08:28.532Z,7.80
2023-05-04T16:10:57.305Z,7.10
2023-05-04T16:13:24.925Z,8.02
2023-05-04T16:15:52.457Z,8.10
2023-05-04T16:18:20.005Z,8.52
2023-05-04T16:20:47.650Z,8.97
2023-05-04T16:23:15.862Z,8.32
2023-05-04T16:25:43.554Z,8.00
2023-05-04T16:28:11.179Z,8.23
2023-05-04T16:30:38.715Z,8.60
2023-05-04T16:33:06.268Z,7.87
2023-05-04T16:35:33.728Z,7.15
2023-05-04T16:38:01.279Z,7.07
2023-05-04T16:40:29.010Z,7.35
2023-05-04T16:42:56.392Z,6.82
2023-05-04T16:45:25.673Z,7.80
2023-05-04T16:47:53.063Z,8.13
2023-05-04T16:50:20.585Z,7.40
2023-05-04T16:52:47.938Z,6.97
2023-05-04T16:55:15.164Z,6.95
2023-05-04T16:57:43.083Z,7.53
2023-05-04T17:00:10.938Z,7.30
2023-05-04T17:02:38.421Z,7.20
2023-05-04T17:05:06.910Z,7.05
2023-05-04T17:07:34.641Z,6.88
2023-05-04T17:10:01.953Z,7.10
2023-05-04T17:12:29.351Z,6.97
2023-05-04T17:14:56.654Z,6.97
2023-05-04T17:17:24.486Z,6.85
2023-05-04T17:19:51.858Z,6.80
2023-05-04T17:22:19.795Z,6.60
2023-05-04T17:24:47.199Z,6.53
2023-05-04T17:27:14.515Z,6.90
2023-05-04T17:29:41.952Z,7.10
2023-05-04T17:32:09.394Z,5.85
2023-05-04T17:34:37.181Z,6.20
2023-05-04T17:37:04.605Z,6.28
2023-05-04T17:39:31.998Z,5.82
2023-05-04T17:41:59.615Z,5.60
2023-05-04T17:44:28.815Z,6.07
2023-05-04T17:46:56.403Z,6.00
2023-05-04T17:49:23.805Z,5.70
2023-05-04T17:51:51.296Z,5.20
2023-05-04T17:54:18.724Z,6.10
2023-05-04T17:56:46.042Z,6.90
2023-05-04T17:59:13.471Z,7.20
2023-05-04T18:01:40.824Z,6.82
2023-05-04T18:04:08.144Z,6.93
2023-05-04T18:06:36.450Z,7.38
2023-05-04T18:09:04.380Z,6.53
2023-05-04T18:11:31.808Z,6.77
2023-05-04T18:13:59.123Z,6.57
2023-05-04T18:16:26.548Z,7.18
2023-05-04T18:18:53.975Z,6.65
2023-05-04T18:21:21.361Z,6.95
2023-05-04T18:23:48.729Z,8.93
2023-05-04T18:26:22.880Z,9.90
2023-05-04T18:28:50.439Z,7.90
2023-05-04T18:31:18.934Z,7.78
2023-05-04T18:33:46.698Z,10.90
2023-05-04T18:36:14.151Z,7.67
2023-05-04T18:38:41.515Z,7.50
2023-05-04T18:41:08.933Z,10.00
2023-05-04T18:43:36.313Z,7.75
2023-05-04T18:46:07.862Z,7.78
2023-05-04T18:48:35.417Z,7.80
2023-05-04T18:51:03.035Z,7.22
2023-05-04T18:53:30.438Z,7.63
2023-05-04T18:56:07.818Z,7.45
2023-05-04T18:58:37.708Z,9.00
2023-05-04T19:01:06.012Z,8.40
2023-05-04T19:03:33.711Z,8.10
2023-05-04T19:06:01.256Z,6.75
2023-05-04T19:08:28.678Z,7.35
2023-05-04T19:11:03.592Z,6.68
2023-05-04T19:13:31.345Z,7.23
2023-05-04T19:15:59.827Z,7.28
2023-05-04T19:18:27.233Z,6.97
2023-05-04T19:20:54.720Z,8.07
2023-05-04T19:23:22.102Z,6.90
2023-05-04T19:25:49.391Z,6.53
2023-05-04T19:28:16.787Z,6.40
2023-05-04T19:30:44.074Z,6.03
2023-05-04T19:33:11.547Z,6.22
2023-05-04T19:35:38.910Z,5.45
2023-05-04T19:38:06.810Z,6.27
2023-05-04T19:40:34.591Z,6.40
2023-05-04T19:43:02.012Z,6.05
2023-05-04T19:45:29.396Z,5.10
2023-05-04T19:47:56.772Z,5.32
2023-05-04T19:50:24.220Z,5.90
2023-05-04T19:52:51.863Z,5.18
2023-05-04T19:55:19.313Z,5.28
2023-05-04T19:57:47.766Z,5.88
2023-05-04T20:00:17.134Z,5.22
2023-05-04T20:02:44.518Z,5.43
2023-05-04T20:05:12.219Z,5.53
2023-05-04T20:07:39.648Z,5.07
2023-05-04T20:10:08.319Z,5.22
2023-05-04T20:12:36.100Z,5.78
2023-05-04T20:15:04.505Z,4.90
2023-05-04T20:17:31.968Z,5.30
2023-05-04T20:19:59.626Z,4.90
2023-05-04T20:22:26.952Z,5.20
2023-05-04T20:24:54.294Z,5.00
2023-05-04T20:27:22.028Z,6.03
2023-05-04T20:29:49.326Z,5.43
2023-05-04T20:32:17.072Z,5.47
2023-05-04T20:34:45.069Z,5.75
2023-05-04T20:37:12.480Z,5.07
2023-05-04T20:39:39.785Z,5.43
2023-05-04T20:42:08.176Z,5.90
2023-05-04T20:44:35.520Z,4.70
2023-05-04T20:47:02.827Z,4.70
2023-05-04T20:49:30.149Z,4.63
2023-05-04T20:51:57.500Z,5.37
2023-05-04T20:54:24.848Z,5.22
2023-05-04T20:56:52.194Z,5.25
2023-05-04T20:59:19.515Z,5.22
2023-05-04T21:01:46.935Z,5.50
2023-05-04T21:04:14.991Z,5.10
2023-05-04T21:06:42.390Z,5.28
2023-05-04T21:09:10.667Z,4.82
2023-05-04T21:11:38.012Z,4.95
2023-05-04T21:14:05.375Z,5.15
2023-05-04T21:16:32.837Z,5.10
2023-05-04T21:19:00.161Z,4.78
2023-05-04T21:21:27.548Z,4.90
2023-05-04T21:23:54.838Z,5.15
2023-05-04T21:26:22.128Z,4.97
2023-05-04T21:28:50.766Z,5.20
2023-05-04T21:31:18.148Z,4.97
2023-05-04T21:33:45.503Z,4.95
2023-05-04T21:36:13.691Z,4.95
2023-05-04T21:38:41.076Z,4.35
2023-05-04T21:41:15.327Z,4.97
2023-05-04T21:43:43.275Z,4.80
2023-05-04T21:46:12.200Z,4.90
2023-05-04T21:48:39.871Z,4.72
2023-05-04T21:51:07.321Z,4.85
2023-05-04T21:53:34.774Z,4.60
2023-05-04T21:56:02.714Z,4.75
2023-05-04T21:58:30.085Z,5.10
2023-05-04T22:00:57.390Z,4.38
2023-05-04T22:03:24.711Z,4.80
2023-05-04T22:05:55.503Z,4.90
2023-05-04T22:08:22.801Z,4.20
2023-05-04T22:10:50.965Z,5.13
2023-05-04T22:13:18.329Z,4.20
2023-05-04T22:15:50.044Z,4.32
2023-05-04T22:18:17.892Z,5.33
2023-05-04T22:20:45.225Z,5.40
2023-05-04T22:23:12.596Z,4.88
2023-05-04T22:25:40.005Z,4.60
2023-05-04T22:28:07.432Z,4.53
2023-05-04T22:30:34.939Z,5.17
2023-05-04T22:33:02.511Z,5.15
2023-05-04T22:35:31.628Z,4.82
2023-05-04T22:37:59.067Z,5.00
2023-05-04T22:40:26.824Z,4.50
2023-05-04T22:42:54.155Z,5.20
2023-05-04T22:45:21.467Z,4.80
2023-05-04T22:47:48.881Z,5.10
2023-05-04T22:50:16.317Z,4.88
2023-05-04T22:52:43.820Z,5.07
2023-05-04T22:55:11.726Z,5.30
2023-05-04T22:57:39.066Z,5.22
2023-05-04T23:00:07.753Z,4.63
2023-05-04T23:02:35.671Z,5.45
2023-05-04T23:05:03.044Z,5.07
2023-05-04T23:07:30.558Z,5.30
2023-05-04T23:09:57.845Z,4.93
2023-05-04T23:12:25.585Z,5.30
2023-05-04T23:14:53.111Z,5.30
2023-05-04T23:17:20.396Z,4.80
2023-05-04T23:19:47.913Z,5.30
2023-05-04T23:22:15.539Z,5.38
2023-05-04T23:24:43.133Z,5.05
2023-05-04T23:27:11.522Z,5.80
2023-05-04T23:29:38.931Z,5.43
2023-05-04T23:32:06.516Z,4.83
2023-05-04T23:34:34.074Z,5.20
2023-05-04T23:37:01.563Z,5.22
2023-05-04T23:39:29.038Z,6.10
2023-05-04T23:41:56.395Z,6.75
2023-05-04T23:44:23.714Z,6.63
2023-05-04T23:46:51.105Z,7.20
2023-05-04T23:49:18.410Z,7.72
2023-05-04T23:51:45.760Z,7.35
2023-05-04T23:54:13.087Z,7.15
2023-05-04T23:56:40.419Z,7.90
2023-05-04T23:59:07.689Z,7.22
